Golden, Canada
Current Conditions -  °F | °C
As of 6:00 AM on Wednesday 22 Oct 2014 (Local Time) from CYGE Reporting Station
Broken Clouds Broken Clouds  
Wind Chill: 43°   Ceiling: 5500
Heat Index: 46°   Visibility: 10mi
Dew Point: 39°   Wind: 7mph
Humidity: 76%   Direction: 170°S
Pressure: 29.85"   Gusts: 18mph
Location:  51.29°N, 116.96°W
Report Text: CYGE 221200Z 17006G16KT 10SM FEW006 SCT035 BKN055 08/04 A2985 RMK ST2SC2SC3 SLP122
Loading
Personal Weather Stations






























Interactive Weather Map
Tropical Storm Tracking
New forecast layout! Learn more

10-Day Weather Forecast

Advertisements
Track Severe Weather on mobile